sensor_id;sensor_type;location;lat;lon;timestamp;temperature;humidity
5280;DHT22;2663;53.588;10.010;2022-08-03T00:01:50;22.60;95.30
5280;DHT22;2663;53.588;10.010;2022-08-03T00:04:17;22.60;95.20
5280;DHT22;2663;53.588;10.010;2022-08-03T00:06:44;22.50;95.20
5280;DHT22;2663;53.588;10.010;2022-08-03T00:09:10;22.50;95.50
5280;DHT22;2663;53.588;10.010;2022-08-03T00:11:37;22.50;95.30
5280;DHT22;2663;53.588;10.010;2022-08-03T00:14:05;22.50;95.50
5280;DHT22;2663;53.588;10.010;2022-08-03T00:16:32;22.50;95.50
5280;DHT22;2663;53.588;10.010;2022-08-03T00:18:59;22.50;95.50
5280;DHT22;2663;53.588;10.010;2022-08-03T00:21:27;22.40;95.50
5280;DHT22;2663;53.588;10.010;2022-08-03T00:23:54;22.40;95.40
5280;DHT22;2663;53.588;10.010;2022-08-03T00:26:21;22.40;95.40
5280;DHT22;2663;53.588;10.010;2022-08-03T00:28:49;22.40;95.50
5280;DHT22;2663;53.588;10.010;2022-08-03T00:31:15;22.40;95.60
5280;DHT22;2663;53.588;10.010;2022-08-03T00:34:02;22.60;95.80
5280;DHT22;2663;53.588;10.010;2022-08-03T00:36:29;22.40;95.60
5280;DHT22;2663;53.588;10.010;2022-08-03T00:38:56;22.40;95.70
5280;DHT22;2663;53.588;10.010;2022-08-03T00:41:23;22.40;95.50
5280;DHT22;2663;53.588;10.010;2022-08-03T00:43:50;22.40;95.30
5280;DHT22;2663;53.588;10.010;2022-08-03T00:46:16;22.40;95.50
5280;DHT22;2663;53.588;10.010;2022-08-03T00:48:50;22.30;95.40
5280;DHT22;2663;53.588;10.010;2022-08-03T00:51:19;22.30;95.60
5280;DHT22;2663;53.588;10.010;2022-08-03T00:53:46;22.30;95.70
5280;DHT22;2663;53.588;10.010;2022-08-03T00:56:14;22.20;95.70
5280;DHT22;2663;53.588;10.010;2022-08-03T00:58:43;22.20;95.70
5280;DHT22;2663;53.588;10.010;2022-08-03T01:01:10;22.20;95.70
5280;DHT22;2663;53.588;10.010;2022-08-03T01:03:38;22.20;95.80
5280;DHT22;2663;53.588;10.010;2022-08-03T01:06:21;22.20;95.70
5280;DHT22;2663;53.588;10.010;2022-08-03T01:09:11;22.10;95.80
5280;DHT22;2663;53.588;10.010;2022-08-03T01:14:33;22.10;95.80
5280;DHT22;2663;53.588;10.010;2022-08-03T01:17:10;22.10;95.90
5280;DHT22;2663;53.588;10.010;2022-08-03T01:19:50;22.00;95.80
5280;DHT22;2663;53.588;10.010;2022-08-03T01:25:23;22.00;95.90
5280;DHT22;2663;53.588;10.010;2022-08-03T01:28:19;21.50;95.90
5280;DHT22;2663;53.588;10.010;2022-08-03T01:30:49;22.00;96.10
5280;DHT22;2663;53.588;10.010;2022-08-03T01:33:23;22.00;96.00
5280;DHT22;2663;53.588;10.010;2022-08-03T01:35:58;22.00;96.10
5280;DHT22;2663;53.588;10.010;2022-08-03T01:38:35;21.90;96.00
5280;DHT22;2663;53.588;10.010;2022-08-03T01:41:07;21.90;96.00
5280;DHT22;2663;53.588;10.010;2022-08-03T01:43:37;21.90;95.90
5280;DHT22;2663;53.588;10.010;2022-08-03T01:46:26;21.90;96.00
5280;DHT22;2663;53.588;10.010;2022-08-03T01:48:54;21.90;96.20
5280;DHT22;2663;53.588;10.010;2022-08-03T01:51:21;21.80;96.00
5280;DHT22;2663;53.588;10.010;2022-08-03T01:53:49;21.90;96.10
5280;DHT22;2663;53.588;10.010;2022-08-03T01:56:19;21.90;96.10
5280;DHT22;2663;53.588;10.010;2022-08-03T01:58:48;21.80;96.10
5280;DHT22;2663;53.588;10.010;2022-08-03T02:01:17;21.80;96.20
5280;DHT22;2663;53.588;10.010;2022-08-03T02:03:45;21.80;96.10
5280;DHT22;2663;53.588;10.010;2022-08-03T02:06:27;21.80;96.10
5280;DHT22;2663;53.588;10.010;2022-08-03T02:09:16;21.70;96.20
5280;DHT22;2663;53.588;10.010;2022-08-03T02:11:44;21.70;96.10
5280;DHT22;2663;53.588;10.010;2022-08-03T02:14:13;21.70;96.20
5280;DHT22;2663;53.588;10.010;2022-08-03T02:16:42;21.70;96.30
5280;DHT22;2663;53.588;10.010;2022-08-03T02:19:10;21.70;96.20
5280;DHT22;2663;53.588;10.010;2022-08-03T02:21:37;21.60;96.20
5280;DHT22;2663;53.588;10.010;2022-08-03T02:24:25;21.60;96.00
5280;DHT22;2663;53.588;10.010;2022-08-03T02:26:54;21.60;96.30
5280;DHT22;2663;53.588;10.010;2022-08-03T02:29:24;21.50;96.20
5280;DHT22;2663;53.588;10.010;2022-08-03T02:32:09;21.50;96.20
5280;DHT22;2663;53.588;10.010;2022-08-03T02:34:38;21.50;96.50
5280;DHT22;2663;53.588;10.010;2022-08-03T02:37:06;21.50;96.40
5280;DHT22;2663;53.588;10.010;2022-08-03T02:39:34;21.50;96.60
5280;DHT22;2663;53.588;10.010;2022-08-03T02:42:02;21.50;96.50
5280;DHT22;2663;53.588;10.010;2022-08-03T02:44:32;21.40;96.60
5280;DHT22;2663;53.588;10.010;2022-08-03T02:47:04;21.50;96.70
5280;DHT22;2663;53.588;10.010;2022-08-03T02:49:32;21.40;96.70
5280;DHT22;2663;53.588;10.010;2022-08-03T02:52:18;21.40;96.70
5280;DHT22;2663;53.588;10.010;2022-08-03T02:54:45;21.40;96.50
5280;DHT22;2663;53.588;10.010;2022-08-03T02:57:14;21.30;96.60
5280;DHT22;2663;53.588;10.010;2022-08-03T02:59:41;21.30;96.80
5280;DHT22;2663;53.588;10.010;2022-08-03T03:02:09;21.40;96.90
5280;DHT22;2663;53.588;10.010;2022-08-03T03:04:37;21.30;96.80
5280;DHT22;2663;53.588;10.010;2022-08-03T03:07:25;21.30;96.80
5280;DHT22;2663;53.588;10.010;2022-08-03T03:09:54;21.30;96.80
5280;DHT22;2663;53.588;10.010;2022-08-03T03:12:21;21.30;97.00
5280;DHT22;2663;53.588;10.010;2022-08-03T03:14:49;21.30;96.90
5280;DHT22;2663;53.588;10.010;2022-08-03T03:17:16;21.30;96.60
5280;DHT22;2663;53.588;10.010;2022-08-03T03:19:43;21.30;96.80
5280;DHT22;2663;53.588;10.010;2022-08-03T03:22:11;21.30;96.90
5280;DHT22;2663;53.588;10.010;2022-08-03T03:24:39;21.30;97.00
5280;DHT22;2663;53.588;10.010;2022-08-03T03:27:07;21.30;97.20
5280;DHT22;2663;53.588;10.010;2022-08-03T03:29:34;21.30;97.00
5280;DHT22;2663;53.588;10.010;2022-08-03T03:32:05;21.30;97.00
5280;DHT22;2663;53.588;10.010;2022-08-03T03:34:38;21.00;97.10
5280;DHT22;2663;53.588;10.010;2022-08-03T03:37:05;21.20;97.00
5280;DHT22;2663;53.588;10.010;2022-08-03T03:39:31;21.20;97.20
5280;DHT22;2663;53.588;10.010;2022-08-03T03:41:59;21.20;97.10
5280;DHT22;2663;53.588;10.010;2022-08-03T03:44:29;20.50;97.10
5280;DHT22;2663;53.588;10.010;2022-08-03T03:46:59;21.20;97.30
5280;DHT22;2663;53.588;10.010;2022-08-03T03:49:25;21.20;97.20
5280;DHT22;2663;53.588;10.010;2022-08-03T03:51:54;21.20;97.10
5280;DHT22;2663;53.588;10.010;2022-08-03T03:54:21;21.20;97.10
5280;DHT22;2663;53.588;10.010;2022-08-03T03:56:51;21.10;97.40
5280;DHT22;2663;53.588;10.010;2022-08-03T03:59:17;21.10;97.40
5280;DHT22;2663;53.588;10.010;2022-08-03T04:01:44;21.10;97.40
5280;DHT22;2663;53.588;10.010;2022-08-03T04:04:11;21.10;97.40
5280;DHT22;2663;53.588;10.010;2022-08-03T04:06:56;21.10;97.30
5280;DHT22;2663;53.588;10.010;2022-08-03T04:09:43;21.00;97.10
5280;DHT22;2663;53.588;10.010;2022-08-03T04:12:40;21.00;97.20
5280;DHT22;2663;53.588;10.010;2022-08-03T04:15:18;21.00;97.40
5280;DHT22;2663;53.588;10.010;2022-08-03T04:17:47;21.00;97.30
5280;DHT22;2663;53.588;10.010;2022-08-03T04:20:17;21.00;97.60
5280;DHT22;2663;53.588;10.010;2022-08-03T04:22:48;21.10;97.50
5280;DHT22;2663;53.588;10.010;2022-08-03T04:25:17;21.10;97.50
5280;DHT22;2663;53.588;10.010;2022-08-03T04:27:46;21.10;97.40
5280;DHT22;2663;53.588;10.010;2022-08-03T04:30:36;21.10;97.30
5280;DHT22;2663;53.588;10.010;2022-08-03T04:33:05;21.10;97.40
5280;DHT22;2663;53.588;10.010;2022-08-03T04:35:35;21.10;97.20
5280;DHT22;2663;53.588;10.010;2022-08-03T04:38:22;21.10;97.50
5280;DHT22;2663;53.588;10.010;2022-08-03T04:40:51;21.10;97.40
5280;DHT22;2663;53.588;10.010;2022-08-03T04:43:20;21.20;97.50
5280;DHT22;2663;53.588;10.010;2022-08-03T04:45:50;21.20;97.60
5280;DHT22;2663;53.588;10.010;2022-08-03T04:48:18;21.20;97.20
5280;DHT22;2663;53.588;10.010;2022-08-03T04:50:46;21.30;97.30
5280;DHT22;2663;53.588;10.010;2022-08-03T04:53:13;21.30;97.10
5280;DHT22;2663;53.588;10.010;2022-08-03T04:55:41;21.30;97.40
5280;DHT22;2663;53.588;10.010;2022-08-03T04:58:08;21.40;97.40
5280;DHT22;2663;53.588;10.010;2022-08-03T05:00:35;22.70;97.60
5280;DHT22;2663;53.588;10.010;2022-08-03T05:03:01;21.50;97.40
5280;DHT22;2663;53.588;10.010;2022-08-03T05:05:28;21.50;97.20
5280;DHT22;2663;53.588;10.010;2022-08-03T05:08:15;21.50;97.20
5280;DHT22;2663;53.588;10.010;2022-08-03T05:10:46;21.60;97.30
5280;DHT22;2663;53.588;10.010;2022-08-03T05:13:13;21.60;97.00
5280;DHT22;2663;53.588;10.010;2022-08-03T05:15:40;21.60;97.10
5280;DHT22;2663;53.588;10.010;2022-08-03T05:18:09;21.70;97.10
5280;DHT22;2663;53.588;10.010;2022-08-03T05:20:40;21.70;97.20
5280;DHT22;2663;53.588;10.010;2022-08-03T05:23:07;21.80;97.00
5280;DHT22;2663;53.588;10.010;2022-08-03T05:25:33;21.80;97.00
5280;DHT22;2663;53.588;10.010;2022-08-03T05:28:00;21.90;97.00
5280;DHT22;2663;53.588;10.010;2022-08-03T05:30:27;21.90;96.90
5280;DHT22;2663;53.588;10.010;2022-08-03T05:33:00;21.90;96.70
5280;DHT22;2663;53.588;10.010;2022-08-03T05:35:27;22.00;96.90
5280;DHT22;2663;53.588;10.010;2022-08-03T05:38:14;22.00;96.60
5280;DHT22;2663;53.588;10.010;2022-08-03T05:40:55;22.10;96.50
5280;DHT22;2663;53.588;10.010;2022-08-03T05:43:42;22.20;96.30
5280;DHT22;2663;53.588;10.010;2022-08-03T05:46:08;22.20;96.10
5280;DHT22;2663;53.588;10.010;2022-08-03T05:48:38;22.30;96.10
5280;DHT22;2663;53.588;10.010;2022-08-03T05:51:04;22.40;95.70
5280;DHT22;2663;53.588;10.010;2022-08-03T05:53:33;22.50;95.70
5280;DHT22;2663;53.588;10.010;2022-08-03T05:56:00;22.60;95.60
5280;DHT22;2663;53.588;10.010;2022-08-03T05:58:38;22.60;95.50
5280;DHT22;2663;53.588;10.010;2022-08-03T06:01:05;22.70;95.50
5280;DHT22;2663;53.588;10.010;2022-08-03T06:03:32;22.80;95.50
5280;DHT22;2663;53.588;10.010;2022-08-03T06:05:58;25.00;95.50
5280;DHT22;2663;53.588;10.010;2022-08-03T06:08:26;23.00;95.30
5280;DHT22;2663;53.588;10.010;2022-08-03T06:10:53;23.10;95.30
5280;DHT22;2663;53.588;10.010;2022-08-03T06:13:19;23.20;95.20
5280;DHT22;2663;53.588;10.010;2022-08-03T06:15:46;23.30;94.90
5280;DHT22;2663;53.588;10.010;2022-08-03T06:18:12;23.30;94.80
5280;DHT22;2663;53.588;10.010;2022-08-03T06:20:39;23.40;94.60
5280;DHT22;2663;53.588;10.010;2022-08-03T06:23:07;23.50;94.50
5280;DHT22;2663;53.588;10.010;2022-08-03T06:25:41;23.60;94.00
5280;DHT22;2663;53.588;10.010;2022-08-03T06:28:09;23.60;94.00
5280;DHT22;2663;53.588;10.010;2022-08-03T06:30:54;23.70;93.80
5280;DHT22;2663;53.588;10.010;2022-08-03T06:33:23;23.80;93.30
5280;DHT22;2663;53.588;10.010;2022-08-03T06:36:11;23.90;93.30
5280;DHT22;2663;53.588;10.010;2022-08-03T06:38:38;24.00;93.20
5280;DHT22;2663;53.588;10.010;2022-08-03T06:41:05;24.00;93.10
5280;DHT22;2663;53.588;10.010;2022-08-03T06:43:31;24.00;92.90
5280;DHT22;2663;53.588;10.010;2022-08-03T06:46:03;24.00;92.80
5280;DHT22;2663;53.588;10.010;2022-08-03T06:48:33;24.00;92.80
5280;DHT22;2663;53.588;10.010;2022-08-03T06:50:59;24.10;92.70
5280;DHT22;2663;53.588;10.010;2022-08-03T06:53:26;24.10;92.20
5280;DHT22;2663;53.588;10.010;2022-08-03T06:55:53;24.10;92.40
5280;DHT22;2663;53.588;10.010;2022-08-03T06:58:21;24.20;92.10
5280;DHT22;2663;53.588;10.010;2022-08-03T07:00:48;24.40;92.20
5280;DHT22;2663;53.588;10.010;2022-08-03T07:03:15;24.50;92.00
5280;DHT22;2663;53.588;10.010;2022-08-03T07:05:42;24.50;91.70
5280;DHT22;2663;53.588;10.010;2022-08-03T07:08:09;24.60;91.90
5280;DHT22;2663;53.588;10.010;2022-08-03T07:10:35;24.70;91.60
5280;DHT22;2663;53.588;10.010;2022-08-03T07:13:03;24.70;91.40
5280;DHT22;2663;53.588;10.010;2022-08-03T07:15:30;24.80;91.40
5280;DHT22;2663;53.588;10.010;2022-08-03T07:18:17;24.80;91.40
5280;DHT22;2663;53.588;10.010;2022-08-03T07:20:55;24.90;91.30
5280;DHT22;2663;53.588;10.010;2022-08-03T07:23:22;25.10;91.10
5280;DHT22;2663;53.588;10.010;2022-08-03T07:25:48;25.20;91.10
5280;DHT22;2663;53.588;10.010;2022-08-03T07:28:16;25.30;90.90
5280;DHT22;2663;53.588;10.010;2022-08-03T07:30:43;25.30;91.20
5280;DHT22;2663;53.588;10.010;2022-08-03T07:33:10;25.40;90.90
5280;DHT22;2663;53.588;10.010;2022-08-03T07:35:37;25.50;90.60
5280;DHT22;2663;53.588;10.010;2022-08-03T07:38:03;25.60;90.70
5280;DHT22;2663;53.588;10.010;2022-08-03T07:40:30;25.60;90.70
5280;DHT22;2663;53.588;10.010;2022-08-03T07:42:58;25.80;90.40
5280;DHT22;2663;53.588;10.010;2022-08-03T07:45:25;25.90;90.40
5280;DHT22;2663;53.588;10.010;2022-08-03T07:47:52;25.90;90.50
5280;DHT22;2663;53.588;10.010;2022-08-03T07:50:20;26.10;90.20
5280;DHT22;2663;53.588;10.010;2022-08-03T07:52:48;26.10;89.70
5280;DHT22;2663;53.588;10.010;2022-08-03T07:55:17;26.10;89.90
5280;DHT22;2663;53.588;10.010;2022-08-03T07:57:43;26.10;88.00
5280;DHT22;2663;53.588;10.010;2022-08-03T08:00:18;26.00;88.30
5280;DHT22;2663;53.588;10.010;2022-08-03T08:02:45;26.10;87.70
5280;DHT22;2663;53.588;10.010;2022-08-03T08:05:12;26.20;87.10
5280;DHT22;2663;53.588;10.010;2022-08-03T08:07:39;26.30;86.90
5280;DHT22;2663;53.588;10.010;2022-08-03T08:10:07;26.40;87.40
5280;DHT22;2663;53.588;10.010;2022-08-03T08:12:36;26.40;86.40
5280;DHT22;2663;53.588;10.010;2022-08-03T08:15:04;26.30;86.50
5280;DHT22;2663;53.588;10.010;2022-08-03T08:17:43;26.30;86.90
5280;DHT22;2663;53.588;10.010;2022-08-03T08:20:14;26.40;86.70
5280;DHT22;2663;53.588;10.010;2022-08-03T08:22:47;26.40;86.20
5280;DHT22;2663;53.588;10.010;2022-08-03T08:25:17;26.60;87.00
5280;DHT22;2663;53.588;10.010;2022-08-03T08:27:46;26.50;86.90
5280;DHT22;2663;53.588;10.010;2022-08-03T08:30:34;26.60;86.60
5280;DHT22;2663;53.588;10.010;2022-08-03T08:33:00;26.60;86.40
5280;DHT22;2663;53.588;10.010;2022-08-03T08:35:27;26.60;86.30
5280;DHT22;2663;53.588;10.010;2022-08-03T08:37:54;26.80;86.30
5280;DHT22;2663;53.588;10.010;2022-08-03T08:40:22;26.90;86.00
5280;DHT22;2663;53.588;10.010;2022-08-03T08:42:49;26.90;86.10
5280;DHT22;2663;53.588;10.010;2022-08-03T08:45:25;27.00;86.30
5280;DHT22;2663;53.588;10.010;2022-08-03T08:47:54;27.10;86.00
5280;DHT22;2663;53.588;10.010;2022-08-03T08:50:27;27.00;85.90
5280;DHT22;2663;53.588;10.010;2022-08-03T08:52:54;26.80;87.00
5280;DHT22;2663;53.588;10.010;2022-08-03T08:55:22;26.90;86.70
5280;DHT22;2663;53.588;10.010;2022-08-03T08:57:57;27.00;86.60
5280;DHT22;2663;53.588;10.010;2022-08-03T09:00:24;27.40;86.20
5280;DHT22;2663;53.588;10.010;2022-08-03T09:02:51;27.20;86.00
5280;DHT22;2663;53.588;10.010;2022-08-03T09:05:19;27.10;86.10
5280;DHT22;2663;53.588;10.010;2022-08-03T09:08:05;27.10;86.30
5280;DHT22;2663;53.588;10.010;2022-08-03T09:10:32;27.00;87.10
5280;DHT22;2663;53.588;10.010;2022-08-03T09:13:00;27.10;86.70
5280;DHT22;2663;53.588;10.010;2022-08-03T09:15:30;27.10;86.30
5280;DHT22;2663;53.588;10.010;2022-08-03T09:18:01;27.10;87.10
5280;DHT22;2663;53.588;10.010;2022-08-03T09:20:31;27.20;86.40
5280;DHT22;2663;53.588;10.010;2022-08-03T09:23:02;27.20;86.60
5280;DHT22;2663;53.588;10.010;2022-08-03T09:25:57;27.00;86.60
5280;DHT22;2663;53.588;10.010;2022-08-03T09:28:33;27.00;86.90
5280;DHT22;2663;53.588;10.010;2022-08-03T09:31:38;27.20;87.10
5280;DHT22;2663;53.588;10.010;2022-08-03T09:34:13;27.50;86.40
5280;DHT22;2663;53.588;10.010;2022-08-03T09:36:45;27.80;86.40
5280;DHT22;2663;53.588;10.010;2022-08-03T09:39:23;27.90;85.70
5280;DHT22;2663;53.588;10.010;2022-08-03T09:42:16;27.90;85.70
5280;DHT22;2663;53.588;10.010;2022-08-03T09:44:51;27.80;85.70
5280;DHT22;2663;53.588;10.010;2022-08-03T09:47:31;28.00;85.00
5280;DHT22;2663;53.588;10.010;2022-08-03T09:50:00;27.90;85.30
5280;DHT22;2663;53.588;10.010;2022-08-03T09:52:36;27.80;85.40
5280;DHT22;2663;53.588;10.010;2022-08-03T09:55:15;27.70;85.60
5280;DHT22;2663;53.588;10.010;2022-08-03T09:58:04;27.80;85.50
5280;DHT22;2663;53.588;10.010;2022-08-03T10:00:32;28.00;85.70
5280;DHT22;2663;53.588;10.010;2022-08-03T10:03:17;28.20;84.80
5280;DHT22;2663;53.588;10.010;2022-08-03T10:05:44;28.30;84.70
5280;DHT22;2663;53.588;10.010;2022-08-03T10:08:16;28.40;84.30
5280;DHT22;2663;53.588;10.010;2022-08-03T10:10:45;28.30;84.20
5280;DHT22;2663;53.588;10.010;2022-08-03T10:13:18;28.50;84.70
5280;DHT22;2663;53.588;10.010;2022-08-03T10:15:45;28.70;84.20
5280;DHT22;2663;53.588;10.010;2022-08-03T10:18:32;28.40;83.70
5280;DHT22;2663;53.588;10.010;2022-08-03T10:21:09;28.40;83.80
5280;DHT22;2663;53.588;10.010;2022-08-03T10:23:39;28.50;83.60
5280;DHT22;2663;53.588;10.010;2022-08-03T10:26:07;28.60;83.30
5280;DHT22;2663;53.588;10.010;2022-08-03T10:28:35;28.50;83.10
5280;DHT22;2663;53.588;10.010;2022-08-03T10:31:10;28.40;83.80
5280;DHT22;2663;53.588;10.010;2022-08-03T10:33:44;28.20;84.60
5280;DHT22;2663;53.588;10.010;2022-08-03T10:36:19;28.20;84.50
5280;DHT22;2663;53.588;10.010;2022-08-03T10:38:50;28.20;84.70
5280;DHT22;2663;53.588;10.010;2022-08-03T10:41:23;28.00;84.70
5280;DHT22;2663;53.588;10.010;2022-08-03T10:44:18;28.10;84.80
5280;DHT22;2663;53.588;10.010;2022-08-03T10:46:46;28.20;84.50
5280;DHT22;2663;53.588;10.010;2022-08-03T10:49:15;28.90;84.50
5280;DHT22;2663;53.588;10.010;2022-08-03T10:52:01;28.50;84.00
5280;DHT22;2663;53.588;10.010;2022-08-03T10:54:49;28.60;83.80
5280;DHT22;2663;53.588;10.010;2022-08-03T10:57:50;28.70;83.30
5280;DHT22;2663;53.588;10.010;2022-08-03T11:00:26;29.00;83.30
5280;DHT22;2663;53.588;10.010;2022-08-03T11:03:07;28.80;82.40
5280;DHT22;2663;53.588;10.010;2022-08-03T11:05:40;29.00;82.70
5280;DHT22;2663;53.588;10.010;2022-08-03T11:08:21;29.00;81.70
5280;DHT22;2663;53.588;10.010;2022-08-03T11:10:50;28.90;82.60
5280;DHT22;2663;53.588;10.010;2022-08-03T11:13:19;29.00;82.20
5280;DHT22;2663;53.588;10.010;2022-08-03T11:15:48;29.00;81.90
5280;DHT22;2663;53.588;10.010;2022-08-03T11:18:16;29.00;82.10
5280;DHT22;2663;53.588;10.010;2022-08-03T11:23:16;29.50;81.20
5280;DHT22;2663;53.588;10.010;2022-08-03T11:28:35;29.50;80.00
5280;DHT22;2663;53.588;10.010;2022-08-03T11:34:10;29.30;80.50
5280;DHT22;2663;53.588;10.010;2022-08-03T11:39:43;29.30;80.90
5280;DHT22;2663;53.588;10.010;2022-08-03T11:45:00;29.80;80.00
5280;DHT22;2663;53.588;10.010;2022-08-03T11:47:28;30.00;79.70
5280;DHT22;2663;53.588;10.010;2022-08-03T11:49:57;29.60;80.40
5280;DHT22;2663;53.588;10.010;2022-08-03T11:52:26;29.70;80.50
5280;DHT22;2663;53.588;10.010;2022-08-03T11:54:59;29.30;79.70
5280;DHT22;2663;53.588;10.010;2022-08-03T11:57:33;29.60;80.50
5280;DHT22;2663;53.588;10.010;2022-08-03T12:00:28;29.70;80.20
5280;DHT22;2663;53.588;10.010;2022-08-03T12:03:05;29.70;79.40
5280;DHT22;2663;53.588;10.010;2022-08-03T12:05:38;29.60;79.40
5280;DHT22;2663;53.588;10.010;2022-08-03T12:08:06;29.60;79.10
5280;DHT22;2663;53.588;10.010;2022-08-03T12:10:34;29.80;79.10
5280;DHT22;2663;53.588;10.010;2022-08-03T12:13:03;29.90;78.30
5280;DHT22;2663;53.588;10.010;2022-08-03T12:15:56;30.00;78.50
5280;DHT22;2663;53.588;10.010;2022-08-03T12:18:24;30.00;78.20
5280;DHT22;2663;53.588;10.010;2022-08-03T12:20:52;29.90;78.30
5280;DHT22;2663;53.588;10.010;2022-08-03T12:23:28;29.80;77.80
5280;DHT22;2663;53.588;10.010;2022-08-03T12:26:01;29.90;77.80
5280;DHT22;2663;53.588;10.010;2022-08-03T12:28:28;29.90;78.50
5280;DHT22;2663;53.588;10.010;2022-08-03T12:31:05;30.20;78.30
5280;DHT22;2663;53.588;10.010;2022-08-03T12:33:54;30.30;77.40
5280;DHT22;2663;53.588;10.010;2022-08-03T12:36:21;30.40;77.40
5280;DHT22;2663;53.588;10.010;2022-08-03T12:38:55;30.50;77.50
5280;DHT22;2663;53.588;10.010;2022-08-03T12:41:30;30.60;76.20
5280;DHT22;2663;53.588;10.010;2022-08-03T12:44:01;30.50;75.90
5280;DHT22;2663;53.588;10.010;2022-08-03T12:46:36;30.30;76.60
5280;DHT22;2663;53.588;10.010;2022-08-03T12:49:14;30.30;77.50
5280;DHT22;2663;53.588;10.010;2022-08-03T12:54:20;30.50;75.90
5280;DHT22;2663;53.588;10.010;2022-08-03T12:57:04;30.10;76.90
5280;DHT22;2663;53.588;10.010;2022-08-03T12:59:37;30.10;76.90
5280;DHT22;2663;53.588;10.010;2022-08-03T13:02:22;30.20;77.20
5280;DHT22;2663;53.588;10.010;2022-08-03T13:04:51;30.10;77.10
5280;DHT22;2663;53.588;10.010;2022-08-03T13:07:18;30.30;77.40
5280;DHT22;2663;53.588;10.010;2022-08-03T13:09:55;30.50;77.50
5280;DHT22;2663;53.588;10.010;2022-08-03T13:12:23;30.40;76.90
5280;DHT22;2663;53.588;10.010;2022-08-03T13:14:54;30.40;76.90
5280;DHT22;2663;53.588;10.010;2022-08-03T13:17:21;30.40;76.70
5280;DHT22;2663;53.588;10.010;2022-08-03T13:19:48;30.40;76.80
5280;DHT22;2663;53.588;10.010;2022-08-03T13:22:17;30.50;76.80
5280;DHT22;2663;53.588;10.010;2022-08-03T13:24:49;30.40;76.70
5280;DHT22;2663;53.588;10.010;2022-08-03T13:27:16;30.50;76.40
5280;DHT22;2663;53.588;10.010;2022-08-03T13:30:03;30.50;76.60
5280;DHT22;2663;53.588;10.010;2022-08-03T13:32:30;30.70;76.20
5280;DHT22;2663;53.588;10.010;2022-08-03T13:34:58;30.60;76.10
5280;DHT22;2663;53.588;10.010;2022-08-03T13:37:24;30.70;76.20
5280;DHT22;2663;53.588;10.010;2022-08-03T13:39:52;30.70;75.50
5280;DHT22;2663;53.588;10.010;2022-08-03T13:42:27;30.70;75.80
5280;DHT22;2663;53.588;10.010;2022-08-03T13:44:54;30.70;75.30
5280;DHT22;2663;53.588;10.010;2022-08-03T13:47:21;30.70;75.60
5280;DHT22;2663;53.588;10.010;2022-08-03T13:49:48;30.80;76.00
5280;DHT22;2663;53.588;10.010;2022-08-03T13:52:28;30.90;75.90
5280;DHT22;2663;53.588;10.010;2022-08-03T13:54:55;31.00;76.00
5280;DHT22;2663;53.588;10.010;2022-08-03T13:57:21;31.00;75.40
5280;DHT22;2663;53.588;10.010;2022-08-03T14:00:09;31.00;75.50
5280;DHT22;2663;53.588;10.010;2022-08-03T14:02:36;31.10;75.50
5280;DHT22;2663;53.588;10.010;2022-08-03T14:05:03;31.40;74.90
5280;DHT22;2663;53.588;10.010;2022-08-03T14:07:30;31.40;74.50
5280;DHT22;2663;53.588;10.010;2022-08-03T14:09:56;31.50;75.00
5280;DHT22;2663;53.588;10.010;2022-08-03T14:12:23;31.50;74.80
5280;DHT22;2663;53.588;10.010;2022-08-03T14:14:50;31.50;73.90
5280;DHT22;2663;53.588;10.010;2022-08-03T14:17:16;31.40;74.40
5280;DHT22;2663;53.588;10.010;2022-08-03T14:19:44;31.60;74.20
5280;DHT22;2663;53.588;10.010;2022-08-03T14:22:19;31.70;73.80
5280;DHT22;2663;53.588;10.010;2022-08-03T14:24:46;31.80;73.10
5280;DHT22;2663;53.588;10.010;2022-08-03T14:27:15;31.80;73.40
5280;DHT22;2663;53.588;10.010;2022-08-03T14:29:41;31.80;73.50
5280;DHT22;2663;53.588;10.010;2022-08-03T14:32:08;32.00;73.40
5280;DHT22;2663;53.588;10.010;2022-08-03T14:34:39;31.90;73.30
5280;DHT22;2663;53.588;10.010;2022-08-03T14:37:06;32.10;73.50
5280;DHT22;2663;53.588;10.010;2022-08-03T14:39:32;32.10;72.90
5280;DHT22;2663;53.588;10.010;2022-08-03T14:42:19;32.10;73.20
5280;DHT22;2663;53.588;10.010;2022-08-03T14:44:46;32.20;73.00
5280;DHT22;2663;53.588;10.010;2022-08-03T14:47:13;32.30;72.10
5280;DHT22;2663;53.588;10.010;2022-08-03T14:49:40;32.40;72.00
5280;DHT22;2663;53.588;10.010;2022-08-03T14:52:27;32.50;72.90
5280;DHT22;2663;53.588;10.010;2022-08-03T14:54:54;32.70;71.60
5280;DHT22;2663;53.588;10.010;2022-08-03T14:57:21;32.70;71.80
5280;DHT22;2663;53.588;10.010;2022-08-03T14:59:47;33.10;72.60
5280;DHT22;2663;53.588;10.010;2022-08-03T15:02:23;33.00;71.30
5280;DHT22;2663;53.588;10.010;2022-08-03T15:04:51;32.90;71.00
5280;DHT22;2663;53.588;10.010;2022-08-03T15:07:18;32.40;71.50
5280;DHT22;2663;53.588;10.010;2022-08-03T15:09:46;32.60;72.00
5280;DHT22;2663;53.588;10.010;2022-08-03T15:12:12;32.90;71.10
5280;DHT22;2663;53.588;10.010;2022-08-03T15:14:39;33.00;71.00
5280;DHT22;2663;53.588;10.010;2022-08-03T15:17:06;33.00;71.10
5280;DHT22;2663;53.588;10.010;2022-08-03T15:19:34;33.00;71.10
5280;DHT22;2663;53.588;10.010;2022-08-03T15:22:21;33.00;70.80
5280;DHT22;2663;53.588;10.010;2022-08-03T15:25:01;33.40;70.90
5280;DHT22;2663;53.588;10.010;2022-08-03T15:27:27;33.10;70.40
5280;DHT22;2663;53.588;10.010;2022-08-03T15:29:54;32.60;71.30
5280;DHT22;2663;53.588;10.010;2022-08-03T15:32:35;32.50;71.50
5280;DHT22;2663;53.588;10.010;2022-08-03T15:35:02;32.50;70.90
5280;DHT22;2663;53.588;10.010;2022-08-03T15:37:29;32.60;70.40
5280;DHT22;2663;53.588;10.010;2022-08-03T15:39:56;32.60;71.50
5280;DHT22;2663;53.588;10.010;2022-08-03T15:42:27;32.90;71.00
5280;DHT22;2663;53.588;10.010;2022-08-03T15:44:54;32.80;70.50
5280;DHT22;2663;53.588;10.010;2022-08-03T15:47:21;32.60;71.40
5280;DHT22;2663;53.588;10.010;2022-08-03T15:49:48;32.30;71.20
5280;DHT22;2663;53.588;10.010;2022-08-03T15:52:15;31.80;71.50
5280;DHT22;2663;53.588;10.010;2022-08-03T15:54:42;31.80;72.50
5280;DHT22;2663;53.588;10.010;2022-08-03T15:57:08;32.10;72.20
5280;DHT22;2663;53.588;10.010;2022-08-03T15:59:35;32.50;70.70
5280;DHT22;2663;53.588;10.010;2022-08-03T16:02:02;32.90;70.60
5280;DHT22;2663;53.588;10.010;2022-08-03T16:04:29;33.30;70.10
5280;DHT22;2663;53.588;10.010;2022-08-03T16:06:55;33.70;69.20
5280;DHT22;2663;53.588;10.010;2022-08-03T16:09:22;33.90;68.70
5280;DHT22;2663;53.588;10.010;2022-08-03T16:12:09;33.80;69.20
5280;DHT22;2663;53.588;10.010;2022-08-03T16:14:42;33.40;67.60
5280;DHT22;2663;53.588;10.010;2022-08-03T16:17:18;33.70;68.00
5280;DHT22;2663;53.588;10.010;2022-08-03T16:19:46;34.20;67.30
5280;DHT22;2663;53.588;10.010;2022-08-03T16:22:12;35.10;65.90
5280;DHT22;2663;53.588;10.010;2022-08-03T16:24:40;34.80;65.90
5280;DHT22;2663;53.588;10.010;2022-08-03T16:27:06;34.10;66.60
5280;DHT22;2663;53.588;10.010;2022-08-03T16:29:43;33.70;67.50
5280;DHT22;2663;53.588;10.010;2022-08-03T16:32:10;33.50;67.70
5280;DHT22;2663;53.588;10.010;2022-08-03T16:34:38;33.40;67.90